City Of Sidon — H8BG — position and weather

sailwx.info

Track history (hours):
 
Tides and Currents Weather Stations Pressure Air Temp Water Temp Dewpoint Dewpoint Depression Visibility Wind Speed Wind Dir Waves Ship Positions

City Of Sidon

Last reported at 2014-Jul-28 03:28 UTC. Time now 2014-Jul-28 04:17 UTC.
Position N 44°18' E 008°30'.

Length 109 m; draft 4.2 m.

Type: Cargo ship. MMSI: 371966000.

Date/timePositionNaut miles runAvg speedWind from/ knotsBaromVisibWave heightAir tempDewpointWater temp
2014-Jul-28 03:28N 44°18' E 008°30'0 0.0
2014-Jul-28 02:10N 44°18' E 008°30'0 0.0
2014-Jul-28 01:31N 44°18' E 008°30'0 0.0
2014-Jul-28 00:28N 44°18' E 008°30'0 0.0
2014-Jul-27 23:31N 44°18' E 008°30'0 0.0
2014-Jul-27 22:33N 44°18' E 008°30'0 0.0
2014-Jul-27 21:33N 44°18' E 008°30'0 0.1
2014-Jul-27 20:33N 44°18' E 008°30'0 0.0
2014-Jul-27 19:33N 44°18' E 008°30'0 0.1
2014-Jul-27 18:30N 44°18' E 008°30'0 0.0
2014-Jul-27 17:33N 44°18' E 008°30'0 0.1
2014-Jul-27 16:30N 44°18' E 008°30'0 0.0
2014-Jul-27 15:33N 44°18' E 008°30'0 0.0
2014-Jul-27 14:33N 44°18' E 008°30'0 0.0
2014-Jul-27 13:33N 44°18' E 008°30'0 0.1
2014-Jul-27 12:21N 44°18' E 008°30'0 0.2
2014-Jul-27 11:30N 44°18' E 008°30'0 0.1
2014-Jul-27 10:09N 44°18' E 008°30'0 0.0
2014-Jul-27 09:24N 44°18' E 008°30'0 0.0
2014-Jul-27 08:21N 44°18' E 008°30'0 0.0
2014-Jul-27 07:30N 44°18' E 008°30'0 0.0
2014-Jul-27 06:24N 44°18' E 008°30'0 0.0
2014-Jul-27 05:33N 44°18' E 008°30'0 0.0
2014-Jul-27 04:33N 44°18' E 008°30'0 0.0
2014-Jul-27 03:33N 44°18' E 008°30'0 0.0
2014-Jul-27 02:33N 44°18' E 008°30'0 0.0
2014-Jul-27 01:30N 44°18' E 008°30'0 0.0
2014-Jul-27 00:33N 44°18' E 008°30'0 0.0
2014-Jul-26 23:33N 44°18' E 008°30'0 0.0
2014-Jul-26 22:33N 44°18' E 008°30'6 6.4
2014-Jul-26 21:33N 44°13' E 008°35'9 8.9
2014-Jul-26 20:33N 44°06' E 008°43'10 9.6
2014-Jul-26 19:33N 43°58' E 008°51'10 9.9
2014-Jul-26 18:33N 43°50' E 008°59'10 9.6
2014-Jul-26 17:33N 43°42' E 009°05'9 9.3
2014-Jul-26 16:33N 43°34' E 009°12'9 9.1
2014-Jul-26 15:33N 43°26' E 009°19'9 8.9
2014-Jul-26 14:33N 43°19' E 009°26'9 8.9
2014-Jul-26 13:33N 43°11' E 009°32'21 9.5
2014-Jul-26 11:20N 42°50' E 009°36'110 9.3
2014-Jul-25 23:33N 41°01' E 009°54'18 9.1
2014-Jul-25 21:33N 40°43' E 009°57'13 9.8
2014-Jul-25 20:13N 40°30' E 009°59'10 9.6
2014-Jul-25 19:09N 40°20' E 009°56'92 8.3
2014-Jul-25 08:05N 38°49' E 010°09'5 9.4
2014-Jul-25 07:33N 38°45' E 010°14'9 9.3
2014-Jul-25 06:33N 38°38' E 010°21'10 9.3
2014-Jul-25 05:25N 38°30' E 010°30'8 9.2
2014-Jul-25 04:33N 38°24' E 010°37'109 9.0
2014-Jul-24 16:23N 36°51' E 011°50'17 9.1
2014-Jul-24 14:32N 36°35' E 011°55'  
2014-Jul-20 21:12N 32°57' E 012°08'0 0.0
2014-Jul-20 20:29N 32°57' E 012°08'0 0.0
2014-Jul-20 19:34N 32°57' E 012°08'0 0.0
2014-Jul-20 18:33N 32°57' E 012°08'252 9.2
2014-Jul-19 15:18N 37°00' E 013°27'7 9.5
2014-Jul-19 14:33N 37°07' E 013°29'1 0.4
2014-Jul-19 10:33N 37°08' E 013°28'11 8.7
2014-Jul-19 09:15N 36°56' E 013°28'6 8.9
2014-Jul-19 08:33N 36°51' E 013°26'8 8.4
2014-Jul-19 07:34N 36°42' E 013°24'9 8.7
2014-Jul-19 06:34N 36°34' E 013°24'8 8.4
2014-Jul-19 05:33N 36°25' E 013°25'8 8.3
2014-Jul-19 04:34N 36°17' E 013°25'8 8.3
2014-Jul-19 03:34N 36°09' E 013°24'8 7.9
2014-Jul-19 02:34N 36°01' E 013°24'8 7.7
2014-Jul-19 01:34N 35°53' E 013°23'8 7.6
2014-Jul-19 00:34N 35°46' E 013°24'8 8.1
2014-Jul-18 23:34N 35°38' E 013°24'9 8.6
2014-Jul-18 22:34N 35°29' E 013°25'9 9.0
2014-Jul-18 21:33N 35°20' E 013°24'9 9.1
2014-Jul-18 20:33N 35°11' E 013°25'13 8.8
2014-Jul-18 19:08N 34°58' E 013°25'14 8.7
2014-Jul-18 17:33N 34°45' E 013°25'9 8.5
2014-Jul-18 16:33N 34°36' E 013°25'9 8.6
2014-Jul-18 15:33N 34°27' E 013°25'9 8.6
2014-Jul-18 14:33N 34°19' E 013°25'9 8.7
2014-Jul-18 13:33N 34°10' E 013°24'12 8.7
2014-Jul-18 12:11N 33°58' E 013°24'17 8.9
2014-Jul-18 10:18N 33°41' E 013°24'  
Track history (hours):
 
Tides and Currents Weather Stations Pressure Air Temp Water Temp Dewpoint Dewpoint Depression Visibility Wind Speed Wind Dir Waves Ship Positions

City Of Sidon

Last reported at 2014-Jul-28 03:28 UTC. Time now 2014-Jul-28 04:17 UTC.
Position N 44°18' E 008°30'.

Length 109 m; draft 4.2 m.

Type: Cargo ship. MMSI: 371966000.

Date/timePositionNaut miles runAvg speedWind from/ knotsBaromVisibWave heightAir tempDewpointWater temp
2014-Jul-28 03:28N 44°18' E 008°30'0 0.0
2014-Jul-28 02:10N 44°18' E 008°30'0 0.0
2014-Jul-28 01:31N 44°18' E 008°30'0 0.0
2014-Jul-28 00:28N 44°18' E 008°30'0 0.0
2014-Jul-27 23:31N 44°18' E 008°30'0 0.0
2014-Jul-27 22:33N 44°18' E 008°30'0 0.0
2014-Jul-27 21:33N 44°18' E 008°30'0 0.1
2014-Jul-27 20:33N 44°18' E 008°30'0 0.0
2014-Jul-27 19:33N 44°18' E 008°30'0 0.1
2014-Jul-27 18:30N 44°18' E 008°30'0 0.0
2014-Jul-27 17:33N 44°18' E 008°30'0 0.1
2014-Jul-27 16:30N 44°18' E 008°30'0 0.0
2014-Jul-27 15:33N 44°18' E 008°30'0 0.0
2014-Jul-27 14:33N 44°18' E 008°30'0 0.0
2014-Jul-27 13:33N 44°18' E 008°30'0 0.1
2014-Jul-27 12:21N 44°18' E 008°30'0 0.2
2014-Jul-27 11:30N 44°18' E 008°30'0 0.1
2014-Jul-27 10:09N 44°18' E 008°30'0 0.0
2014-Jul-27 09:24N 44°18' E 008°30'0 0.0
2014-Jul-27 08:21N 44°18' E 008°30'0 0.0
2014-Jul-27 07:30N 44°18' E 008°30'0 0.0
2014-Jul-27 06:24N 44°18' E 008°30'0 0.0
2014-Jul-27 05:33N 44°18' E 008°30'0 0.0
2014-Jul-27 04:33N 44°18' E 008°30'0 0.0
2014-Jul-27 03:33N 44°18' E 008°30'0 0.0
2014-Jul-27 02:33N 44°18' E 008°30'0 0.0
2014-Jul-27 01:30N 44°18' E 008°30'0 0.0
2014-Jul-27 00:33N 44°18' E 008°30'0 0.0
2014-Jul-26 23:33N 44°18' E 008°30'0 0.0
2014-Jul-26 22:33N 44°18' E 008°30'6 6.4
2014-Jul-26 21:33N 44°13' E 008°35'9 8.9
2014-Jul-26 20:33N 44°06' E 008°43'10 9.6
2014-Jul-26 19:33N 43°58' E 008°51'10 9.9
2014-Jul-26 18:33N 43°50' E 008°59'10 9.6
2014-Jul-26 17:33N 43°42' E 009°05'9 9.3
2014-Jul-26 16:33N 43°34' E 009°12'9 9.1
2014-Jul-26 15:33N 43°26' E 009°19'9 8.9
2014-Jul-26 14:33N 43°19' E 009°26'9 8.9
2014-Jul-26 13:33N 43°11' E 009°32'21 9.5
2014-Jul-26 11:20N 42°50' E 009°36'110 9.3
2014-Jul-25 23:33N 41°01' E 009°54'18 9.1
2014-Jul-25 21:33N 40°43' E 009°57'13 9.8
2014-Jul-25 20:13N 40°30' E 009°59'10 9.6
2014-Jul-25 19:09N 40°20' E 009°56'92 8.3
2014-Jul-25 08:05N 38°49' E 010°09'5 9.4
2014-Jul-25 07:33N 38°45' E 010°14'9 9.3
2014-Jul-25 06:33N 38°38' E 010°21'10 9.3
2014-Jul-25 05:25N 38°30' E 010°30'8 9.2
2014-Jul-25 04:33N 38°24' E 010°37'109 9.0
2014-Jul-24 16:23N 36°51' E 011°50'17 9.1
2014-Jul-24 14:32N 36°35' E 011°55'  
2014-Jul-20 21:12N 32°57' E 012°08'0 0.0
2014-Jul-20 20:29N 32°57' E 012°08'0 0.0
2014-Jul-20 19:34N 32°57' E 012°08'0 0.0
2014-Jul-20 18:33N 32°57' E 012°08'252 9.2
2014-Jul-19 15:18N 37°00' E 013°27'7 9.5
2014-Jul-19 14:33N 37°07' E 013°29'1 0.4
2014-Jul-19 10:33N 37°08' E 013°28'11 8.7
2014-Jul-19 09:15N 36°56' E 013°28'6 8.9
2014-Jul-19 08:33N 36°51' E 013°26'8 8.4
2014-Jul-19 07:34N 36°42' E 013°24'9 8.7
2014-Jul-19 06:34N 36°34' E 013°24'8 8.4
2014-Jul-19 05:33N 36°25' E 013°25'8 8.3
2014-Jul-19 04:34N 36°17' E 013°25'8 8.3
2014-Jul-19 03:34N 36°09' E 013°24'8 7.9
2014-Jul-19 02:34N 36°01' E 013°24'8 7.7
2014-Jul-19 01:34N 35°53' E 013°23'8 7.6
2014-Jul-19 00:34N 35°46' E 013°24'8 8.1
2014-Jul-18 23:34N 35°38' E 013°24'9 8.6
2014-Jul-18 22:34N 35°29' E 013°25'9 9.0
2014-Jul-18 21:33N 35°20' E 013°24'9 9.1
2014-Jul-18 20:33N 35°11' E 013°25'13 8.8
2014-Jul-18 19:08N 34°58' E 013°25'14 8.7
2014-Jul-18 17:33N 34°45' E 013°25'9 8.5
2014-Jul-18 16:33N 34°36' E 013°25'9 8.6
2014-Jul-18 15:33N 34°27' E 013°25'9 8.6
2014-Jul-18 14:33N 34°19' E 013°25'9 8.7
2014-Jul-18 13:33N 34°10' E 013°24'12 8.7
2014-Jul-18 12:11N 33°58' E 013°24'17 8.9
2014-Jul-18 10:18N 33°41' E 013°24'  

Dump ship's entire track history